Terminal Aerodrome Forecast
Issued by NWS

Home | Current Version | Previous Version | Text Only | Print | Product List | Glossary On
Versions: 1 2 3 4 5 6 7 8 9 10 11 12 13 14 15 16 17 18 19 20 21 22 23 24
000
FTUS42 KFFC 201123
TAFRYY
TAF
KRYY 201123Z 2012/2112 13005KT 6SM BR OVC004
     FM201500 14005KT 6SM BR OVC006
     FM201800 14007KT P6SM BKN012
     FM202100 14005KT P6SM SCT015 BKN035
     FM210200 VRB04KT P6SM BKN020
     FM210400 14005KT P6SM FEW006 BKN012
     FM210600 14007KT P6SM BKN003
     FM211000 15006KT 4SM BR OVC005=

USA.gov is the U.S. government's official web portal to all federal, state and local government web resources and services.